createdAt,value
2019-04-30T00:02:40.940Z,101.27
2019-04-30T00:05:37.716Z,84.67
2019-04-30T00:08:38.999Z,92.27
2019-04-30T00:11:31.876Z,41.10
2019-04-30T00:14:36.994Z,69.77
2019-04-30T00:17:25.718Z,81.83
2019-04-30T00:20:22.169Z,88.23
2019-04-30T00:23:22.566Z,89.57
2019-04-30T00:26:17.062Z,96.63
2019-04-30T00:29:12.399Z,88.80
2019-04-30T00:32:08.166Z,94.63
2019-04-30T00:35:07.022Z,86.95
2019-04-30T00:38:01.338Z,90.80
2019-04-30T00:41:01.910Z,85.17
2019-04-30T00:43:52.716Z,88.93
2019-04-30T00:46:50.384Z,90.30
2019-04-30T00:49:47.336Z,90.07
2019-04-30T00:52:45.668Z,17.97
2019-04-30T00:55:44.237Z,42.27
2019-04-30T00:58:37.343Z,83.73
2019-04-30T01:01:50.751Z,88.53
2019-04-30T01:05:00.188Z,86.97
2019-04-30T01:07:55.029Z,89.03
2019-04-30T01:10:51.144Z,87.83
2019-04-30T01:13:52.588Z,81.83
2019-04-30T01:16:44.517Z,85.05
2019-04-30T01:19:41.381Z,86.37
2019-04-30T01:22:38.756Z,91.13
2019-04-30T01:25:34.588Z,80.77
2019-04-30T01:28:31.193Z,89.92
2019-04-30T01:31:31.630Z,83.93
2019-04-30T01:34:24.178Z,77.37
2019-04-30T01:37:24.665Z,89.77
2019-04-30T01:40:16.254Z,85.80
2019-04-30T01:43:11.849Z,92.90
2019-04-30T01:46:13.917Z,88.13
2019-04-30T01:49:06.057Z,89.33
2019-04-30T01:52:02.875Z,93.83
2019-04-30T01:54:59.302Z,86.90
2019-04-30T01:58:15.469Z,83.62
2019-04-30T02:01:14.482Z,95.13
2019-04-30T02:04:10.044Z,96.90
2019-04-30T02:07:06.388Z,90.93
2019-04-30T02:10:03.264Z,99.03
2019-04-30T02:12:59.881Z,91.00
2019-04-30T02:15:56.495Z,100.33
2019-04-30T02:18:53.123Z,87.37
2019-04-30T02:21:49.792Z,86.10
2019-04-30T02:24:45.451Z,93.40
2019-04-30T02:27:41.439Z,86.40
2019-04-30T02:30:40.480Z,88.73
2019-04-30T02:33:34.350Z,95.03
2019-04-30T02:36:54.149Z,83.03
2019-04-30T02:39:50.744Z,90.83
2019-04-30T02:42:49.766Z,88.80
2019-04-30T02:45:43.165Z,92.63
2019-04-30T02:48:40.931Z,85.63
2019-04-30T02:51:36.464Z,89.33
2019-04-30T02:54:39.831Z,89.83
2019-04-30T02:57:35.374Z,98.13
2019-04-30T03:00:33.289Z,83.30
2019-04-30T03:03:29.996Z,88.93
2019-04-30T03:06:25.209Z,96.47
2019-04-30T03:09:21.442Z,91.07
2019-04-30T03:12:17.107Z,71.92
2019-04-30T03:15:14.795Z,88.43
2019-04-30T03:18:24.277Z,87.03
2019-04-30T03:21:25.839Z,89.73
2019-04-30T03:24:21.621Z,92.08
2019-04-30T03:27:20.655Z,86.03
2019-04-30T03:30:15.900Z,90.10
2019-04-30T03:33:13.517Z,87.55
2019-04-30T03:36:12.548Z,87.80
2019-04-30T03:39:06.123Z,97.70
2019-04-30T03:42:02.697Z,96.47
2019-04-30T03:44:59.276Z,89.33
2019-04-30T03:47:54.477Z,83.17
2019-04-30T03:50:56.562Z,98.70
2019-04-30T03:53:50.182Z,94.13
2019-04-30T03:56:44.666Z,97.40
2019-04-30T03:59:41.261Z,85.00
2019-04-30T04:02:50.111Z,90.17
2019-04-30T04:05:59.559Z,88.40
2019-04-30T04:09:12.736Z,92.97
2019-04-30T04:12:23.586Z,83.40
2019-04-30T04:15:21.201Z,89.37
2019-04-30T04:18:17.054Z,88.70
2019-04-30T04:21:20.788Z,92.70
2019-04-30T04:24:15.691Z,89.67
2019-04-30T04:27:13.600Z,91.53
2019-04-30T04:30:10.612Z,92.97
2019-04-30T04:33:05.825Z,89.23
2019-04-30T04:36:01.323Z,90.97
2019-04-30T04:39:00.102Z,88.43
2019-04-30T04:41:55.925Z,91.65
2019-04-30T04:44:52.699Z,91.83
2019-04-30T04:47:50.411Z,95.23
2019-04-30T04:50:44.616Z,85.80
2019-04-30T04:53:40.872Z,92.22
2019-04-30T04:56:39.859Z,95.17
2019-04-30T04:59:33.401Z,91.87
2019-04-30T05:02:50.625Z,92.90
2019-04-30T05:05:47.185Z,95.10
2019-04-30T05:08:41.800Z,95.77
2019-04-30T05:11:39.556Z,91.20
2019-04-30T05:14:35.078Z,99.50
2019-04-30T05:17:32.815Z,93.83
2019-04-30T05:20:29.659Z,103.10
2019-04-30T05:23:25.918Z,99.00
2019-04-30T05:26:22.911Z,94.87
2019-04-30T05:29:19.296Z,103.00
2019-04-30T05:32:16.635Z,97.57
2019-04-30T05:35:13.312Z,101.60
2019-04-30T05:38:09.290Z,92.60
2019-04-30T05:41:05.438Z,99.52
2019-04-30T05:44:03.162Z,97.17
2019-04-30T05:46:59.236Z,101.60
2019-04-30T05:49:55.487Z,108.90
2019-04-30T05:52:51.999Z,100.10
2019-04-30T05:55:49.926Z,100.87
2019-04-30T05:58:46.225Z,104.40
2019-04-30T06:01:48.085Z,102.90
2019-04-30T06:04:38.776Z,102.03
2019-04-30T06:07:36.383Z,118.47
2019-04-30T06:10:46.111Z,106.80
2019-04-30T06:13:53.001Z,105.67
2019-04-30T06:16:49.264Z,107.47
2019-04-30T06:19:45.483Z,105.50
2019-04-30T06:22:44.079Z,104.37
2019-04-30T06:25:55.790Z,112.03
2019-04-30T06:28:36.506Z,110.30
2019-04-30T06:31:37.249Z,113.67
2019-04-30T06:34:29.594Z,106.30
2019-04-30T06:37:26.156Z,106.23
2019-04-30T06:40:21.163Z,104.70
2019-04-30T06:43:19.105Z,107.27
2019-04-30T06:46:14.717Z,102.57
2019-04-30T06:49:11.268Z,109.87
2019-04-30T06:52:18.185Z,111.97
2019-04-30T06:55:03.728Z,110.30
2019-04-30T06:58:12.192Z,110.70
2019-04-30T07:00:59.587Z,111.07
2019-04-30T07:03:58.861Z,113.13
2019-04-30T07:06:52.203Z,114.23
2019-04-30T07:10:05.421Z,111.87
2019-04-30T07:13:15.067Z,107.97
2019-04-30T07:16:11.691Z,112.30
2019-04-30T07:19:09.329Z,112.75
2019-04-30T07:22:04.909Z,112.88
2019-04-30T07:25:01.485Z,115.80
2019-04-30T07:27:59.341Z,116.27
2019-04-30T07:31:07.541Z,118.80
2019-04-30T07:33:53.810Z,109.70
2019-04-30T07:36:55.153Z,116.67
2019-04-30T07:39:43.763Z,110.67
2019-04-30T07:42:44.845Z,111.83
2019-04-30T07:45:39.241Z,108.70
2019-04-30T07:48:34.456Z,112.00
2019-04-30T07:51:31.826Z,110.50
2019-04-30T07:54:27.520Z,111.90
2019-04-30T07:57:23.154Z,117.20
2019-04-30T08:00:19.982Z,113.13
2019-04-30T08:03:21.417Z,110.27
2019-04-30T08:06:19.028Z,109.27
2019-04-30T08:09:14.216Z,110.30
2019-04-30T08:12:11.298Z,107.85
2019-04-30T08:15:09.498Z,108.70
2019-04-30T08:18:05.925Z,106.93
2019-04-30T08:21:00.957Z,106.23
2019-04-30T08:24:00.759Z,106.53
2019-04-30T08:26:53.644Z,105.37
2019-04-30T08:29:50.206Z,117.57
2019-04-30T08:32:45.832Z,103.97
2019-04-30T08:35:43.675Z,120.33
2019-04-30T08:38:39.552Z,117.90
2019-04-30T08:41:36.016Z,101.47
2019-04-30T08:44:39.637Z,106.30
2019-04-30T08:47:36.021Z,111.60
2019-04-30T08:50:33.046Z,111.50
2019-04-30T08:53:32.873Z,102.97
2019-04-30T08:56:25.050Z,103.93
2019-04-30T08:59:20.892Z,106.33
2019-04-30T09:02:19.541Z,104.05
2019-04-30T09:05:15.483Z,103.87
2019-04-30T09:08:12.078Z,128.13
2019-04-30T09:11:22.088Z,108.50
2019-04-30T09:14:03.695Z,118.10
2019-04-30T09:17:01.285Z,106.80
2019-04-30T09:19:58.502Z,107.43
2019-04-30T09:22:53.312Z,106.15
2019-04-30T09:25:50.917Z,104.07
2019-04-30T09:28:49.473Z,108.60
2019-04-30T09:31:43.458Z,100.90
2019-04-30T09:34:40.421Z,100.67
2019-04-30T09:37:36.505Z,103.17
2019-04-30T09:40:32.677Z,110.57
2019-04-30T09:43:29.081Z,104.47
2019-04-30T09:46:27.186Z,102.63
2019-04-30T09:49:23.517Z,101.35
2019-04-30T09:52:19.965Z,101.07
2019-04-30T09:55:16.766Z,103.07
2019-04-30T09:58:17.192Z,102.62
2019-04-30T10:01:09.519Z,103.37
2019-04-30T10:04:04.453Z,103.27
2019-04-30T10:07:01.976Z,99.07
2019-04-30T10:09:59.804Z,102.20
2019-04-30T10:12:55.268Z,101.30
2019-04-30T10:16:12.584Z,100.27
2019-04-30T10:19:10.285Z,99.50
2019-04-30T10:22:05.310Z,103.00
2019-04-30T10:25:01.855Z,104.03
2019-04-30T10:28:10.820Z,100.97
2019-04-30T10:31:07.207Z,104.83
2019-04-30T10:34:04.025Z,103.37
2019-04-30T10:37:02.891Z,105.63
2019-04-30T10:39:59.613Z,100.57
2019-04-30T10:42:54.203Z,106.23
2019-04-30T10:45:52.773Z,100.87
2019-04-30T10:48:47.763Z,103.70
2019-04-30T10:51:44.019Z,102.67
2019-04-30T10:54:39.180Z,104.33
2019-04-30T10:57:35.342Z,101.33
2019-04-30T11:00:40.880Z,103.60
2019-04-30T11:03:39.133Z,103.77
2019-04-30T11:06:34.240Z,101.95
2019-04-30T11:09:31.166Z,100.47
2019-04-30T11:12:26.371Z,103.32
2019-04-30T11:15:22.862Z,101.80
2019-04-30T11:18:22.334Z,102.90
2019-04-30T11:21:19.374Z,109.77
2019-04-30T11:24:13.628Z,102.67
2019-04-30T11:27:11.517Z,104.30
2019-04-30T11:30:18.539Z,108.00
2019-04-30T11:33:03.560Z,104.03
2019-04-30T11:36:05.637Z,102.10
2019-04-30T11:39:08.599Z,105.37
2019-04-30T11:42:05.235Z,101.47
2019-04-30T11:45:02.142Z,102.50
2019-04-30T11:48:02.860Z,102.40
2019-04-30T11:51:03.883Z,104.33
2019-04-30T11:53:59.570Z,101.20
2019-04-30T11:56:56.068Z,102.37
2019-04-30T11:59:51.242Z,104.93
2019-04-30T12:02:55.650Z,102.27
2019-04-30T12:05:52.292Z,101.20
2019-04-30T12:09:04.252Z,103.45
2019-04-30T12:12:01.057Z,102.40
2019-04-30T12:14:56.620Z,102.00
2019-04-30T12:17:54.316Z,104.37
2019-04-30T12:20:49.860Z,117.00
2019-04-30T12:23:46.504Z,107.23
2019-04-30T12:26:43.397Z,117.60
2019-04-30T12:29:40.370Z,102.57
2019-04-30T12:32:39.312Z,106.07
2019-04-30T12:35:33.300Z,102.60
2019-04-30T12:38:30.920Z,111.60
2019-04-30T12:41:26.705Z,128.70
2019-04-30T12:44:23.091Z,104.60
2019-04-30T12:47:23.490Z,105.50
2019-04-30T12:50:43.390Z,114.00
2019-04-30T12:53:47.083Z,105.30
2019-04-30T12:56:55.244Z,120.03
2019-04-30T12:59:51.136Z,113.90
2019-04-30T13:02:46.958Z,112.67
2019-04-30T13:05:45.422Z,103.83
2019-04-30T13:08:42.298Z,109.95
2019-04-30T13:11:40.521Z,119.20
2019-04-30T13:14:39.430Z,104.97
2019-04-30T13:17:34.493Z,109.10
2019-04-30T13:20:30.115Z,123.20
2019-04-30T13:23:25.812Z,107.27
2019-04-30T13:26:22.434Z,138.73
2019-04-30T13:29:25.503Z,114.13
2019-04-30T13:32:30.253Z,109.80
2019-04-30T13:35:20.130Z,110.63
2019-04-30T13:38:22.171Z,104.07
2019-04-30T13:41:33.720Z,109.63
2019-04-30T13:44:49.396Z,105.60
2019-04-30T13:47:44.698Z,106.67
2019-04-30T13:50:40.515Z,108.77
2019-04-30T13:53:37.185Z,113.43
2019-04-30T13:56:33.012Z,113.10
2019-04-30T13:59:29.490Z,107.90
2019-04-30T14:02:25.791Z,108.80
2019-04-30T14:05:27.535Z,110.37
2019-04-30T14:08:35.669Z,116.83
2019-04-30T14:11:30.997Z,108.27
2019-04-30T14:14:29.220Z,113.20
2019-04-30T14:17:22.054Z,105.00
2019-04-30T14:20:19.913Z,112.97
2019-04-30T14:23:15.542Z,107.95
2019-04-30T14:26:12.259Z,111.03
2019-04-30T14:29:08.788Z,120.73
2019-04-30T14:32:05.425Z,110.10
2019-04-30T14:35:02.176Z,113.93
2019-04-30T14:37:59.614Z,112.73
2019-04-30T14:40:56.696Z,115.20
2019-04-30T14:43:56.159Z,106.03
2019-04-30T14:47:05.233Z,108.40
2019-04-30T14:50:09.913Z,108.57
2019-04-30T14:53:21.901Z,111.37
2019-04-30T14:56:36.866Z,104.33
2019-04-30T14:59:44.727Z,108.80
2019-04-30T15:02:45.163Z,111.45
2019-04-30T15:05:48.390Z,113.80
2019-04-30T15:08:42.435Z,105.30
2019-04-30T15:11:42.166Z,108.90
2019-04-30T15:14:38.825Z,106.50
2019-04-30T15:17:35.156Z,108.23
2019-04-30T15:20:32.693Z,110.83
2019-04-30T15:23:35.085Z,106.77
2019-04-30T15:26:34.769Z,113.77
2019-04-30T15:29:32.353Z,109.00
2019-04-30T15:32:28.619Z,106.60
2019-04-30T15:35:24.688Z,105.80
2019-04-30T15:38:29.121Z,107.27
2019-04-30T15:41:23.087Z,110.10
2019-04-30T15:44:20.784Z,106.00
2019-04-30T15:47:16.298Z,104.43
2019-04-30T15:50:14.351Z,106.77
2019-04-30T15:53:11.234Z,116.77
2019-04-30T15:56:12.145Z,114.65
2019-04-30T15:59:28.857Z,109.90
2019-04-30T16:02:56.998Z,112.30
2019-04-30T16:05:51.246Z,119.30
2019-04-30T16:08:50.444Z,113.00
2019-04-30T16:12:05.934Z,108.27
2019-04-30T16:15:01.643Z,110.33
2019-04-30T16:17:58.821Z,108.40
2019-04-30T16:20:56.024Z,108.30
2019-04-30T16:23:52.699Z,109.80
2019-04-30T16:26:52.564Z,106.65
2019-04-30T16:29:46.054Z,108.03
2019-04-30T16:32:42.928Z,106.92
2019-04-30T16:35:37.880Z,106.70
2019-04-30T16:38:35.679Z,110.50
2019-04-30T16:41:32.289Z,107.13
2019-04-30T16:44:29.109Z,108.10
2019-04-30T16:47:25.434Z,102.50
2019-04-30T16:50:20.899Z,103.87
2019-04-30T16:53:17.970Z,105.43
2019-04-30T16:56:13.269Z,107.47
2019-04-30T16:59:14.877Z,103.60
2019-04-30T17:02:10.405Z,105.43
2019-04-30T17:05:24.987Z,103.30
2019-04-30T17:08:41.565Z,111.43
2019-04-30T17:11:50.345Z,110.83
2019-04-30T17:14:46.332Z,103.60
2019-04-30T17:17:42.680Z,101.53
2019-04-30T17:20:39.380Z,106.80
2019-04-30T17:23:35.003Z,102.20
2019-04-30T17:26:35.765Z,104.70
2019-04-30T17:29:32.479Z,101.72
2019-04-30T17:32:30.328Z,103.15
2019-04-30T17:35:25.846Z,101.07
2019-04-30T17:38:22.393Z,128.83
2019-04-30T17:41:20.352Z,102.05
2019-04-30T17:44:15.628Z,99.90
2019-04-30T17:47:12.237Z,104.17
2019-04-30T17:50:11.728Z,99.70
2019-04-30T17:53:09.383Z,105.50
2019-04-30T17:56:04.966Z,105.60
2019-04-30T17:59:01.038Z,99.67
2019-04-30T18:02:02.721Z,101.57
2019-04-30T18:05:00.480Z,100.50
2019-04-30T18:07:56.434Z,97.87
2019-04-30T18:10:53.228Z,100.57
2019-04-30T18:13:51.205Z,100.83
2019-04-30T18:16:48.645Z,98.17
2019-04-30T18:19:52.603Z,100.30
2019-04-30T18:23:04.189Z,99.30
2019-04-30T18:26:02.398Z,99.83
2019-04-30T18:28:59.875Z,101.00
2019-04-30T18:31:55.518Z,100.93
2019-04-30T18:34:52.143Z,102.40
2019-04-30T18:37:48.792Z,103.17
2019-04-30T18:40:45.569Z,104.63
2019-04-30T18:43:44.235Z,100.37
2019-04-30T18:46:40.049Z,106.87
2019-04-30T18:49:37.063Z,101.30
2019-04-30T18:52:33.395Z,103.57
2019-04-30T18:55:29.915Z,103.57
2019-04-30T18:58:37.495Z,106.50
2019-04-30T19:01:22.436Z,104.87
2019-04-30T19:04:19.430Z,103.33
2019-04-30T19:07:27.729Z,103.90
2019-04-30T19:10:32.858Z,103.53
2019-04-30T19:13:47.143Z,105.90
2019-04-30T19:16:57.245Z,105.00
2019-04-30T19:20:05.616Z,101.50
2019-04-30T19:23:03.632Z,106.07
2019-04-30T19:25:59.730Z,112.40
2019-04-30T19:28:56.459Z,103.93
2019-04-30T19:31:56.743Z,110.05
2019-04-30T19:34:53.596Z,104.20
2019-04-30T19:37:50.315Z,104.90
2019-04-30T19:40:46.104Z,104.70
2019-04-30T19:43:44.612Z,105.20
2019-04-30T19:46:42.214Z,103.27
2019-04-30T19:49:50.365Z,103.77
2019-04-30T19:52:47.192Z,105.20
2019-04-30T19:55:43.943Z,106.33
2019-04-30T19:58:52.538Z,105.83
2019-04-30T20:01:36.641Z,107.70
2019-04-30T20:04:36.804Z,114.70
2019-04-30T20:07:31.418Z,111.77
2019-04-30T20:10:28.761Z,104.93
2019-04-30T20:13:33.810Z,104.30
2019-04-30T20:16:20.705Z,104.40
2019-04-30T20:19:17.156Z,107.32
2019-04-30T20:22:14.081Z,109.80
2019-04-30T20:25:11.508Z,105.83
2019-04-30T20:28:07.374Z,109.43
2019-04-30T20:31:04.111Z,108.77
2019-04-30T20:34:01.521Z,108.90
2019-04-30T20:36:58.325Z,108.75
2019-04-30T20:40:01.484Z,107.43
2019-04-30T20:42:58.563Z,108.03
2019-04-30T20:45:55.607Z,108.53
2019-04-30T20:48:51.024Z,109.80
2019-04-30T20:51:55.064Z,108.03
2019-04-30T20:54:45.016Z,110.90
2019-04-30T20:57:41.846Z,107.40
2019-04-30T21:00:37.665Z,108.37
2019-04-30T21:03:34.864Z,108.20
2019-04-30T21:06:31.227Z,113.33
2019-04-30T21:09:26.762Z,106.07
2019-04-30T21:12:23.534Z,111.10
2019-04-30T21:15:20.410Z,108.77
2019-04-30T21:18:17.097Z,107.40
2019-04-30T21:21:12.826Z,107.33
2019-04-30T21:24:08.917Z,107.83
2019-04-30T21:27:09.685Z,107.70
2019-04-30T21:30:05.286Z,108.40
2019-04-30T21:33:13.190Z,107.07
2019-04-30T21:36:21.242Z,108.17
2019-04-30T21:39:19.982Z,111.10
2019-04-30T21:42:12.830Z,109.20
2019-04-30T21:45:10.749Z,108.00
2019-04-30T21:48:09.121Z,107.00
2019-04-30T21:51:04.076Z,108.33
2019-04-30T21:54:00.906Z,111.00
2019-04-30T21:56:56.722Z,106.52
2019-04-30T21:59:53.444Z,107.80
2019-04-30T22:02:50.059Z,107.00
2019-04-30T22:05:46.595Z,114.57
2019-04-30T22:08:42.200Z,108.90
2019-04-30T22:11:42.743Z,113.53
2019-04-30T22:14:39.069Z,107.90
2019-04-30T22:17:34.934Z,108.90
2019-04-30T22:20:31.750Z,110.33
2019-04-30T22:23:28.448Z,111.90
2019-04-30T22:26:26.528Z,106.20
2019-04-30T22:29:22.416Z,108.20
2019-04-30T22:32:18.091Z,106.03
2019-04-30T22:35:32.271Z,110.30
2019-04-30T22:38:29.501Z,106.90
2019-04-30T22:41:26.234Z,107.90
2019-04-30T22:44:21.858Z,116.80
2019-04-30T22:47:25.533Z,108.60
2019-04-30T22:50:22.717Z,108.00
2019-04-30T22:53:17.593Z,109.27
2019-04-30T22:56:15.256Z,107.73
2019-04-30T22:59:10.850Z,112.20
2019-04-30T23:02:24.527Z,109.00
2019-04-30T23:05:21.382Z,109.67
2019-04-30T23:08:17.860Z,110.17
2019-04-30T23:11:14.463Z,130.67
2019-04-30T23:14:10.068Z,108.10
2019-04-30T23:17:07.553Z,106.20
2019-04-30T23:20:03.279Z,106.77
2019-04-30T23:23:00.129Z,103.53
2019-04-30T23:25:55.207Z,109.87
2019-04-30T23:28:51.712Z,111.70
2019-04-30T23:31:48.481Z,106.92
2019-04-30T23:34:44.015Z,105.37
2019-04-30T23:37:41.799Z,108.37
2019-04-30T23:40:42.636Z,105.70
2019-04-30T23:43:39.283Z,109.77
2019-04-30T23:46:38.274Z,110.07
2019-04-30T23:49:35.149Z,118.27
2019-04-30T23:52:31.961Z,110.00
2019-04-30T23:55:27.677Z,108.87
2019-04-30T23:58:25.518Z,106.20
